Terminal Aerodrome Forecast
Issued by NWS

Home | Current Version | Previous Version | Text Only | Print | Product List | Glossary On
Versions: 1 2 3 4 5 6 7 8 9 10 11 12 13
000
FTUS45 KABQ 180500
TAFLVS
TAF
KLVS 180540Z 1806/1906 23009KT P6SM SCT100 BKN150
     FM181100 32006KT P6SM SCT040 SCT140
     FM181500 35006KT P6SM FEW040 SCT120
     FM182000 18011KT P6SM SCT070 BKN120
     FM190200 VRB06KT P6SM SCT060 BKN120=

USA.gov is the U.S. government's official web portal to all federal, state and local government web resources and services.